sensor_id;sensor_type;location;lat;lon;timestamp;P1;durP1;ratioP1;P2;durP2;ratioP2
9330;SDS011;4704;50.470;12.072;2023-12-20T00:01:46;1.70;;;1.60;;
9330;SDS011;4704;50.470;12.072;2023-12-20T00:04:14;1.58;;;1.48;;
9330;SDS011;4704;50.470;12.072;2023-12-20T00:06:42;1.42;;;1.33;;
9330;SDS011;4704;50.470;12.072;2023-12-20T00:09:10;1.65;;;1.55;;
9330;SDS011;4704;50.470;12.072;2023-12-20T00:11:37;1.60;;;1.50;;
9330;SDS011;4704;50.470;12.072;2023-12-20T00:14:07;1.40;;;1.30;;
9330;SDS011;4704;50.470;12.072;2023-12-20T00:16:36;1.45;;;1.35;;
9330;SDS011;4704;50.470;12.072;2023-12-20T00:19:03;1.40;;;1.30;;
9330;SDS011;4704;50.470;12.072;2023-12-20T00:21:31;1.40;;;1.30;;
9330;SDS011;4704;50.470;12.072;2023-12-20T00:23:59;1.30;;;1.20;;
9330;SDS011;4704;50.470;12.072;2023-12-20T00:26:27;1.30;;;1.20;;
9330;SDS011;4704;50.470;12.072;2023-12-20T00:28:54;1.20;;;1.10;;
9330;SDS011;4704;50.470;12.072;2023-12-20T00:31:22;1.45;;;1.35;;
9330;SDS011;4704;50.470;12.072;2023-12-20T00:33:51;1.30;;;1.20;;
9330;SDS011;4704;50.470;12.072;2023-12-20T00:36:18;1.20;;;1.10;;
9330;SDS011;4704;50.470;12.072;2023-12-20T00:38:46;1.15;;;1.05;;
9330;SDS011;4704;50.470;12.072;2023-12-20T00:41:13;1.08;;;1.02;;
9330;SDS011;4704;50.470;12.072;2023-12-20T00:43:41;1.20;;;1.10;;
9330;SDS011;4704;50.470;12.072;2023-12-20T00:46:09;1.40;;;1.30;;
9330;SDS011;4704;50.470;12.072;2023-12-20T00:48:37;1.20;;;1.10;;
9330;SDS011;4704;50.470;12.072;2023-12-20T00:51:09;1.20;;;1.10;;
9330;SDS011;4704;50.470;12.072;2023-12-20T00:53:36;1.13;;;1.00;;
9330;SDS011;4704;50.470;12.072;2023-12-20T00:56:04;1.10;;;1.00;;
9330;SDS011;4704;50.470;12.072;2023-12-20T00:58:31;1.23;;;1.13;;
9330;SDS011;4704;50.470;12.072;2023-12-20T01:00:59;1.10;;;1.00;;
9330;SDS011;4704;50.470;12.072;2023-12-20T01:03:27;1.00;;;1.00;;
9330;SDS011;4704;50.470;12.072;2023-12-20T01:05:54;1.30;;;1.20;;
9330;SDS011;4704;50.470;12.072;2023-12-20T01:08:23;1.20;;;1.10;;
9330;SDS011;4704;50.470;12.072;2023-12-20T01:10:50;1.08;;;0.98;;
9330;SDS011;4704;50.470;12.072;2023-12-20T01:13:18;1.00;;;1.00;;
9330;SDS011;4704;50.470;12.072;2023-12-20T01:15:45;1.00;;;1.00;;
9330;SDS011;4704;50.470;12.072;2023-12-20T01:18:14;0.82;;;0.82;;
9330;SDS011;4704;50.470;12.072;2023-12-20T01:20:41;0.90;;;0.90;;
9330;SDS011;4704;50.470;12.072;2023-12-20T01:23:09;0.93;;;0.90;;
9330;SDS011;4704;50.470;12.072;2023-12-20T01:25:38;0.70;;;0.70;;
9330;SDS011;4704;50.470;12.072;2023-12-20T01:28:06;0.73;;;0.73;;
9330;SDS011;4704;50.470;12.072;2023-12-20T01:30:34;0.73;;;0.73;;
9330;SDS011;4704;50.470;12.072;2023-12-20T01:33:01;0.90;;;0.90;;
9330;SDS011;4704;50.470;12.072;2023-12-20T01:35:29;0.90;;;0.90;;
9330;SDS011;4704;50.470;12.072;2023-12-20T01:37:57;0.70;;;0.70;;
9330;SDS011;4704;50.470;12.072;2023-12-20T01:40:23;0.95;;;0.95;;
9330;SDS011;4704;50.470;12.072;2023-12-20T01:42:59;0.75;;;0.75;;
9330;SDS011;4704;50.470;12.072;2023-12-20T01:45:27;0.95;;;0.95;;
9330;SDS011;4704;50.470;12.072;2023-12-20T01:47:54;0.90;;;0.90;;
9330;SDS011;4704;50.470;12.072;2023-12-20T01:50:22;0.68;;;0.68;;
9330;SDS011;4704;50.470;12.072;2023-12-20T01:52:50;0.70;;;0.70;;
9330;SDS011;4704;50.470;12.072;2023-12-20T01:55:18;0.70;;;0.70;;
9330;SDS011;4704;50.470;12.072;2023-12-20T01:57:46;0.77;;;0.75;;
9330;SDS011;4704;50.470;12.072;2023-12-20T02:00:15;0.65;;;0.65;;
9330;SDS011;4704;50.470;12.072;2023-12-20T02:02:46;0.80;;;0.70;;
9330;SDS011;4704;50.470;12.072;2023-12-20T02:05:15;0.70;;;0.70;;
9330;SDS011;4704;50.470;12.072;2023-12-20T02:07:43;0.70;;;0.70;;
9330;SDS011;4704;50.470;12.072;2023-12-20T02:10:10;0.68;;;0.68;;
9330;SDS011;4704;50.470;12.072;2023-12-20T02:12:38;0.70;;;0.70;;
9330;SDS011;4704;50.470;12.072;2023-12-20T02:15:06;0.65;;;0.65;;
9330;SDS011;4704;50.470;12.072;2023-12-20T02:17:35;0.60;;;0.60;;
9330;SDS011;4704;50.470;12.072;2023-12-20T02:20:03;0.60;;;0.60;;
9330;SDS011;4704;50.470;12.072;2023-12-20T02:22:33;0.70;;;0.70;;
9330;SDS011;4704;50.470;12.072;2023-12-20T02:25:01;0.90;;;0.60;;
9330;SDS011;4704;50.470;12.072;2023-12-20T02:27:29;0.63;;;0.63;;
9330;SDS011;4704;50.470;12.072;2023-12-20T02:29:57;0.73;;;0.73;;
9330;SDS011;4704;50.470;12.072;2023-12-20T02:32:24;0.60;;;0.60;;
9330;SDS011;4704;50.470;12.072;2023-12-20T02:34:52;0.50;;;0.50;;
9330;SDS011;4704;50.470;12.072;2023-12-20T02:37:20;0.60;;;0.60;;
9330;SDS011;4704;50.470;12.072;2023-12-20T02:39:49;0.70;;;0.70;;
9330;SDS011;4704;50.470;12.072;2023-12-20T02:42:17;0.70;;;0.70;;
9330;SDS011;4704;50.470;12.072;2023-12-20T02:44:44;0.65;;;0.65;;
9330;SDS011;4704;50.470;12.072;2023-12-20T02:47:12;0.55;;;0.55;;
9330;SDS011;4704;50.470;12.072;2023-12-20T02:49:39;0.60;;;0.60;;
9330;SDS011;4704;50.470;12.072;2023-12-20T02:52:07;0.60;;;0.60;;
9330;SDS011;4704;50.470;12.072;2023-12-20T02:54:35;0.50;;;0.50;;
9330;SDS011;4704;50.470;12.072;2023-12-20T02:57:04;0.57;;;0.57;;
9330;SDS011;4704;50.470;12.072;2023-12-20T02:59:32;0.57;;;0.57;;
9330;SDS011;4704;50.470;12.072;2023-12-20T03:01:59;0.68;;;0.68;;
9330;SDS011;4704;50.470;12.072;2023-12-20T03:04:27;0.70;;;0.70;;
9330;SDS011;4704;50.470;12.072;2023-12-20T03:06:55;0.60;;;0.60;;
9330;SDS011;4704;50.470;12.072;2023-12-20T03:09:23;0.60;;;0.60;;
9330;SDS011;4704;50.470;12.072;2023-12-20T03:11:50;0.50;;;0.50;;
9330;SDS011;4704;50.470;12.072;2023-12-20T03:14:19;0.50;;;0.50;;
9330;SDS011;4704;50.470;12.072;2023-12-20T03:16:47;0.40;;;0.40;;
9330;SDS011;4704;50.470;12.072;2023-12-20T03:19:16;0.50;;;0.50;;
9330;SDS011;4704;50.470;12.072;2023-12-20T03:21:44;0.32;;;0.32;;
9330;SDS011;4704;50.470;12.072;2023-12-20T03:24:11;0.50;;;0.50;;
9330;SDS011;4704;50.470;12.072;2023-12-20T03:26:39;0.55;;;0.55;;
9330;SDS011;4704;50.470;12.072;2023-12-20T03:29:07;0.60;;;0.60;;
9330;SDS011;4704;50.470;12.072;2023-12-20T03:31:36;0.40;;;0.40;;
9330;SDS011;4704;50.470;12.072;2023-12-20T03:34:04;0.55;;;0.55;;
9330;SDS011;4704;50.470;12.072;2023-12-20T03:36:31;1.13;;;0.57;;
9330;SDS011;4704;50.470;12.072;2023-12-20T03:38:59;0.45;;;0.45;;
9330;SDS011;4704;50.470;12.072;2023-12-20T03:41:26;0.50;;;0.50;;
9330;SDS011;4704;50.470;12.072;2023-12-20T03:43:54;0.60;;;0.60;;
9330;SDS011;4704;50.470;12.072;2023-12-20T03:46:22;0.60;;;0.60;;
9330;SDS011;4704;50.470;12.072;2023-12-20T03:48:51;0.50;;;0.50;;
9330;SDS011;4704;50.470;12.072;2023-12-20T03:51:19;0.50;;;0.50;;
9330;SDS011;4704;50.470;12.072;2023-12-20T03:53:47;0.57;;;0.40;;
9330;SDS011;4704;50.470;12.072;2023-12-20T03:56:14;0.40;;;0.30;;
9330;SDS011;4704;50.470;12.072;2023-12-20T03:58:42;0.40;;;0.40;;
9330;SDS011;4704;50.470;12.072;2023-12-20T04:01:10;0.50;;;0.50;;
9330;SDS011;4704;50.470;12.072;2023-12-20T04:03:38;0.40;;;0.40;;
9330;SDS011;4704;50.470;12.072;2023-12-20T04:06:07;0.40;;;0.40;;
9330;SDS011;4704;50.470;12.072;2023-12-20T04:08:34;0.45;;;0.45;;
9330;SDS011;4704;50.470;12.072;2023-12-20T04:11:02;0.50;;;0.50;;
9330;SDS011;4704;50.470;12.072;2023-12-20T04:13:30;0.50;;;0.50;;
9330;SDS011;4704;50.470;12.072;2023-12-20T04:15:58;0.50;;;0.50;;
9330;SDS011;4704;50.470;12.072;2023-12-20T04:18:26;0.50;;;0.50;;
9330;SDS011;4704;50.470;12.072;2023-12-20T04:20:53;0.45;;;0.45;;
9330;SDS011;4704;50.470;12.072;2023-12-20T04:23:22;0.40;;;0.40;;
9330;SDS011;4704;50.470;12.072;2023-12-20T04:25:50;0.50;;;0.50;;
9330;SDS011;4704;50.470;12.072;2023-12-20T04:28:18;0.50;;;0.50;;
9330;SDS011;4704;50.470;12.072;2023-12-20T04:30:46;1.10;;;0.40;;
9330;SDS011;4704;50.470;12.072;2023-12-20T04:33:13;0.40;;;0.40;;
9330;SDS011;4704;50.470;12.072;2023-12-20T04:35:41;0.50;;;0.40;;
9330;SDS011;4704;50.470;12.072;2023-12-20T04:38:11;0.40;;;0.40;;
9330;SDS011;4704;50.470;12.072;2023-12-20T04:40:40;0.40;;;0.40;;
9330;SDS011;4704;50.470;12.072;2023-12-20T04:43:08;0.40;;;0.40;;
9330;SDS011;4704;50.470;12.072;2023-12-20T04:45:35;0.85;;;0.40;;
9330;SDS011;4704;50.470;12.072;2023-12-20T04:48:03;0.35;;;0.35;;
9330;SDS011;4704;50.470;12.072;2023-12-20T04:50:31;0.43;;;0.43;;
9330;SDS011;4704;50.470;12.072;2023-12-20T04:52:58;0.40;;;0.40;;
9330;SDS011;4704;50.470;12.072;2023-12-20T04:55:26;0.40;;;0.40;;
9330;SDS011;4704;50.470;12.072;2023-12-20T04:57:54;0.40;;;0.40;;
9330;SDS011;4704;50.470;12.072;2023-12-20T05:00:22;0.40;;;0.40;;
9330;SDS011;4704;50.470;12.072;2023-12-20T05:02:49;0.45;;;0.40;;
9330;SDS011;4704;50.470;12.072;2023-12-20T05:05:17;0.40;;;0.40;;
9330;SDS011;4704;50.470;12.072;2023-12-20T05:07:44;0.30;;;0.30;;
9330;SDS011;4704;50.470;12.072;2023-12-20T05:10:12;0.40;;;0.40;;
9330;SDS011;4704;50.470;12.072;2023-12-20T05:12:39;0.35;;;0.35;;
9330;SDS011;4704;50.470;12.072;2023-12-20T05:15:08;0.30;;;0.30;;
9330;SDS011;4704;50.470;12.072;2023-12-20T05:17:36;0.40;;;0.40;;
9330;SDS011;4704;50.470;12.072;2023-12-20T05:20:03;0.30;;;0.30;;
9330;SDS011;4704;50.470;12.072;2023-12-20T05:22:31;0.30;;;0.30;;
9330;SDS011;4704;50.470;12.072;2023-12-20T05:24:58;0.95;;;0.50;;
9330;SDS011;4704;50.470;12.072;2023-12-20T05:27:26;0.40;;;0.40;;
9330;SDS011;4704;50.470;12.072;2023-12-20T05:29:53;0.50;;;0.30;;
9330;SDS011;4704;50.470;12.072;2023-12-20T05:32:24;0.32;;;0.32;;
9330;SDS011;4704;50.470;12.072;2023-12-20T05:34:51;0.35;;;0.30;;
9330;SDS011;4704;50.470;12.072;2023-12-20T05:37:19;0.30;;;0.30;;
9330;SDS011;4704;50.470;12.072;2023-12-20T05:39:46;0.32;;;0.32;;
9330;SDS011;4704;50.470;12.072;2023-12-20T05:42:13;0.30;;;0.30;;
9330;SDS011;4704;50.470;12.072;2023-12-20T05:44:41;0.40;;;0.40;;
9330;SDS011;4704;50.470;12.072;2023-12-20T05:47:08;0.35;;;0.35;;
9330;SDS011;4704;50.470;12.072;2023-12-20T05:49:36;0.28;;;0.28;;
9330;SDS011;4704;50.470;12.072;2023-12-20T05:52:04;0.40;;;0.40;;
9330;SDS011;4704;50.470;12.072;2023-12-20T05:54:32;0.38;;;0.38;;
9330;SDS011;4704;50.470;12.072;2023-12-20T05:56:59;0.40;;;0.40;;
9330;SDS011;4704;50.470;12.072;2023-12-20T05:59:26;0.77;;;0.40;;
9330;SDS011;4704;50.470;12.072;2023-12-20T06:01:54;0.30;;;0.30;;
9330;SDS011;4704;50.470;12.072;2023-12-20T06:04:21;0.30;;;0.30;;
9330;SDS011;4704;50.470;12.072;2023-12-20T06:06:50;0.30;;;0.30;;
9330;SDS011;4704;50.470;12.072;2023-12-20T06:09:17;0.40;;;0.40;;
9330;SDS011;4704;50.470;12.072;2023-12-20T06:11:45;0.40;;;0.40;;
9330;SDS011;4704;50.470;12.072;2023-12-20T06:14:12;0.40;;;0.40;;
9330;SDS011;4704;50.470;12.072;2023-12-20T06:16:39;0.40;;;0.40;;
9330;SDS011;4704;50.470;12.072;2023-12-20T06:19:07;0.38;;;0.38;;
9330;SDS011;4704;50.470;12.072;2023-12-20T06:21:34;0.40;;;0.40;;
9330;SDS011;4704;50.470;12.072;2023-12-20T06:24:03;0.35;;;0.30;;
9330;SDS011;4704;50.470;12.072;2023-12-20T06:26:30;0.40;;;0.32;;
9330;SDS011;4704;50.470;12.072;2023-12-20T06:28:58;0.30;;;0.30;;
9330;SDS011;4704;50.470;12.072;2023-12-20T06:31:26;0.57;;;0.30;;
9330;SDS011;4704;50.470;12.072;2023-12-20T06:33:53;0.30;;;0.30;;
9330;SDS011;4704;50.470;12.072;2023-12-20T06:36:22;0.30;;;0.30;;
9330;SDS011;4704;50.470;12.072;2023-12-20T06:38:50;0.30;;;0.30;;
9330;SDS011;4704;50.470;12.072;2023-12-20T06:41:19;0.30;;;0.30;;
9330;SDS011;4704;50.470;12.072;2023-12-20T06:43:46;0.40;;;0.40;;
9330;SDS011;4704;50.470;12.072;2023-12-20T06:46:14;0.43;;;0.43;;
9330;SDS011;4704;50.470;12.072;2023-12-20T06:48:41;0.30;;;0.30;;
9330;SDS011;4704;50.470;12.072;2023-12-20T06:51:10;0.25;;;0.25;;
9330;SDS011;4704;50.470;12.072;2023-12-20T06:53:38;0.40;;;0.40;;
9330;SDS011;4704;50.470;12.072;2023-12-20T06:56:05;0.30;;;0.30;;
9330;SDS011;4704;50.470;12.072;2023-12-20T06:58:35;0.30;;;0.30;;
9330;SDS011;4704;50.470;12.072;2023-12-20T07:01:03;0.25;;;0.25;;
9330;SDS011;4704;50.470;12.072;2023-12-20T07:03:30;0.30;;;0.22;;
9330;SDS011;4704;50.470;12.072;2023-12-20T07:05:57;0.57;;;0.30;;
9330;SDS011;4704;50.470;12.072;2023-12-20T07:08:25;0.30;;;0.30;;
9330;SDS011;4704;50.470;12.072;2023-12-20T07:10:52;0.38;;;0.35;;
9330;SDS011;4704;50.470;12.072;2023-12-20T07:13:20;0.30;;;0.30;;
9330;SDS011;4704;50.470;12.072;2023-12-20T07:15:49;0.30;;;0.30;;
9330;SDS011;4704;50.470;12.072;2023-12-20T07:18:17;0.30;;;0.30;;
9330;SDS011;4704;50.470;12.072;2023-12-20T07:20:44;0.40;;;0.40;;
9330;SDS011;4704;50.470;12.072;2023-12-20T07:23:12;0.30;;;0.30;;
9330;SDS011;4704;50.470;12.072;2023-12-20T07:25:39;0.38;;;0.35;;
9330;SDS011;4704;50.470;12.072;2023-12-20T07:28:07;0.30;;;0.30;;
9330;SDS011;4704;50.470;12.072;2023-12-20T07:30:34;0.32;;;0.32;;
9330;SDS011;4704;50.470;12.072;2023-12-20T07:33:03;0.38;;;0.38;;
9330;SDS011;4704;50.470;12.072;2023-12-20T07:35:33;0.32;;;0.32;;
9330;SDS011;4704;50.470;12.072;2023-12-20T07:38:00;0.43;;;0.43;;
9330;SDS011;4704;50.470;12.072;2023-12-20T07:40:28;0.30;;;0.30;;
9330;SDS011;4704;50.470;12.072;2023-12-20T07:42:55;0.30;;;0.30;;
9330;SDS011;4704;50.470;12.072;2023-12-20T07:45:23;0.40;;;0.40;;
9330;SDS011;4704;50.470;12.072;2023-12-20T07:47:51;0.30;;;0.30;;
9330;SDS011;4704;50.470;12.072;2023-12-20T07:50:20;0.40;;;0.40;;
9330;SDS011;4704;50.470;12.072;2023-12-20T07:52:47;0.35;;;0.35;;
9330;SDS011;4704;50.470;12.072;2023-12-20T07:55:15;0.30;;;0.30;;
9330;SDS011;4704;50.470;12.072;2023-12-20T07:57:42;0.30;;;0.30;;
9330;SDS011;4704;50.470;12.072;2023-12-20T08:00:10;0.30;;;0.30;;
9330;SDS011;4704;50.470;12.072;2023-12-20T08:02:37;0.30;;;0.30;;
9330;SDS011;4704;50.470;12.072;2023-12-20T08:05:04;0.40;;;0.30;;
9330;SDS011;4704;50.470;12.072;2023-12-20T08:07:35;0.40;;;0.40;;
9330;SDS011;4704;50.470;12.072;2023-12-20T08:10:02;0.40;;;0.40;;
9330;SDS011;4704;50.470;12.072;2023-12-20T08:12:29;0.63;;;0.40;;
9330;SDS011;4704;50.470;12.072;2023-12-20T08:14:57;0.30;;;0.30;;
9330;SDS011;4704;50.470;12.072;2023-12-20T08:17:24;0.30;;;0.30;;
9330;SDS011;4704;50.470;12.072;2023-12-20T08:19:51;0.30;;;0.30;;
9330;SDS011;4704;50.470;12.072;2023-12-20T08:22:19;0.55;;;0.55;;
9330;SDS011;4704;50.470;12.072;2023-12-20T08:24:48;0.30;;;0.30;;
9330;SDS011;4704;50.470;12.072;2023-12-20T08:27:15;0.30;;;0.30;;
9330;SDS011;4704;50.470;12.072;2023-12-20T08:29:43;0.30;;;0.30;;
9330;SDS011;4704;50.470;12.072;2023-12-20T08:32:11;0.30;;;0.30;;
9330;SDS011;4704;50.470;12.072;2023-12-20T08:34:38;0.30;;;0.30;;
9330;SDS011;4704;50.470;12.072;2023-12-20T08:37:05;0.30;;;0.30;;
9330;SDS011;4704;50.470;12.072;2023-12-20T08:39:33;0.40;;;0.40;;
9330;SDS011;4704;50.470;12.072;2023-12-20T08:42:01;0.30;;;0.30;;
9330;SDS011;4704;50.470;12.072;2023-12-20T08:44:29;0.30;;;0.30;;
9330;SDS011;4704;50.470;12.072;2023-12-20T08:46:56;0.40;;;0.40;;
9330;SDS011;4704;50.470;12.072;2023-12-20T08:49:24;0.30;;;0.30;;
9330;SDS011;4704;50.470;12.072;2023-12-20T08:51:51;0.35;;;0.30;;
9330;SDS011;4704;50.470;12.072;2023-12-20T08:54:18;0.47;;;0.40;;
9330;SDS011;4704;50.470;12.072;2023-12-20T08:56:46;0.30;;;0.30;;
9330;SDS011;4704;50.470;12.072;2023-12-20T08:59:14;0.40;;;0.30;;
9330;SDS011;4704;50.470;12.072;2023-12-20T09:01:44;0.22;;;0.22;;
9330;SDS011;4704;50.470;12.072;2023-12-20T09:04:13;0.40;;;0.40;;
9330;SDS011;4704;50.470;12.072;2023-12-20T09:06:40;0.40;;;0.40;;
9330;SDS011;4704;50.470;12.072;2023-12-20T09:09:07;0.43;;;0.40;;
9330;SDS011;4704;50.470;12.072;2023-12-20T09:11:38;0.40;;;0.40;;
9330;SDS011;4704;50.470;12.072;2023-12-20T09:14:06;0.77;;;0.40;;
9330;SDS011;4704;50.470;12.072;2023-12-20T09:16:34;0.30;;;0.30;;
9330;SDS011;4704;50.470;12.072;2023-12-20T09:19:02;0.40;;;0.40;;
9330;SDS011;4704;50.470;12.072;2023-12-20T09:21:29;0.60;;;0.40;;
9330;SDS011;4704;50.470;12.072;2023-12-20T09:23:56;0.40;;;0.40;;
9330;SDS011;4704;50.470;12.072;2023-12-20T09:26:24;0.70;;;0.50;;
9330;SDS011;4704;50.470;12.072;2023-12-20T09:28:51;0.95;;;0.50;;
9330;SDS011;4704;50.470;12.072;2023-12-20T09:31:18;1.45;;;0.52;;
9330;SDS011;4704;50.470;12.072;2023-12-20T09:33:47;1.38;;;0.60;;
9330;SDS011;4704;50.470;12.072;2023-12-20T09:36:14;0.50;;;0.40;;
9330;SDS011;4704;50.470;12.072;2023-12-20T09:38:42;1.77;;;0.60;;
9330;SDS011;4704;50.470;12.072;2023-12-20T09:41:09;1.23;;;0.75;;
9330;SDS011;4704;50.470;12.072;2023-12-20T09:43:37;0.60;;;0.60;;
9330;SDS011;4704;50.470;12.072;2023-12-20T09:46:05;0.98;;;0.68;;
9330;SDS011;4704;50.470;12.072;2023-12-20T09:48:33;1.58;;;0.75;;
9330;SDS011;4704;50.470;12.072;2023-12-20T09:51:02;1.65;;;0.70;;
9330;SDS011;4704;50.470;12.072;2023-12-20T09:53:29;0.70;;;0.70;;
9330;SDS011;4704;50.470;12.072;2023-12-20T09:55:58;1.48;;;0.70;;
9330;SDS011;4704;50.470;12.072;2023-12-20T09:58:26;1.23;;;0.80;;
9330;SDS011;4704;50.470;12.072;2023-12-20T10:00:53;2.05;;;0.50;;
9330;SDS011;4704;50.470;12.072;2023-12-20T10:03:23;0.75;;;0.68;;
9330;SDS011;4704;50.470;12.072;2023-12-20T10:05:52;1.13;;;0.70;;
9330;SDS011;4704;50.470;12.072;2023-12-20T10:08:22;0.68;;;0.63;;
9330;SDS011;4704;50.470;12.072;2023-12-20T10:10:51;1.17;;;0.70;;
9330;SDS011;4704;50.470;12.072;2023-12-20T10:13:18;0.80;;;0.75;;
9330;SDS011;4704;50.470;12.072;2023-12-20T10:15:45;1.02;;;0.80;;
9330;SDS011;4704;50.470;12.072;2023-12-20T10:18:13;0.70;;;0.70;;
9330;SDS011;4704;50.470;12.072;2023-12-20T10:20:40;0.70;;;0.63;;
9330;SDS011;4704;50.470;12.072;2023-12-20T10:23:08;1.88;;;0.88;;
9330;SDS011;4704;50.470;12.072;2023-12-20T10:25:37;0.75;;;0.75;;
9330;SDS011;4704;50.470;12.072;2023-12-20T10:28:11;0.70;;;0.70;;
9330;SDS011;4704;50.470;12.072;2023-12-20T10:30:39;0.90;;;0.80;;
9330;SDS011;4704;50.470;12.072;2023-12-20T10:33:07;0.80;;;0.80;;
9330;SDS011;4704;50.470;12.072;2023-12-20T10:35:35;0.73;;;0.73;;
9330;SDS011;4704;50.470;12.072;2023-12-20T10:38:03;1.73;;;1.10;;
9330;SDS011;4704;50.470;12.072;2023-12-20T10:40:31;1.20;;;0.70;;
9330;SDS011;4704;50.470;12.072;2023-12-20T10:42:59;0.98;;;0.75;;
9330;SDS011;4704;50.470;12.072;2023-12-20T10:45:28;1.52;;;0.88;;
9330;SDS011;4704;50.470;12.072;2023-12-20T10:47:55;1.00;;;0.90;;
9330;SDS011;4704;50.470;12.072;2023-12-20T10:50:24;0.98;;;0.85;;
9330;SDS011;4704;50.470;12.072;2023-12-20T10:52:52;0.80;;;0.80;;
9330;SDS011;4704;50.470;12.072;2023-12-20T10:55:21;0.90;;;0.82;;
9330;SDS011;4704;50.470;12.072;2023-12-20T10:57:48;0.90;;;0.80;;
9330;SDS011;4704;50.470;12.072;2023-12-20T11:00:18;1.27;;;1.00;;
9330;SDS011;4704;50.470;12.072;2023-12-20T11:02:46;1.10;;;0.80;;
9330;SDS011;4704;50.470;12.072;2023-12-20T11:05:19;0.98;;;0.90;;
9330;SDS011;4704;50.470;12.072;2023-12-20T11:07:50;1.00;;;0.90;;
9330;SDS011;4704;50.470;12.072;2023-12-20T11:10:23;0.98;;;0.90;;
9330;SDS011;4704;50.470;12.072;2023-12-20T11:12:52;1.02;;;0.93;;
9330;SDS011;4704;50.470;12.072;2023-12-20T11:15:22;1.05;;;0.93;;
9330;SDS011;4704;50.470;12.072;2023-12-20T11:17:54;1.08;;;0.85;;
9330;SDS011;4704;50.470;12.072;2023-12-20T11:20:22;1.17;;;1.05;;
9330;SDS011;4704;50.470;12.072;2023-12-20T11:22:53;1.02;;;0.85;;
9330;SDS011;4704;50.470;12.072;2023-12-20T11:25:21;3.10;;;0.90;;
9330;SDS011;4704;50.470;12.072;2023-12-20T11:30:41;1.00;;;0.90;;
9330;SDS011;4704;50.470;12.072;2023-12-20T11:33:09;2.03;;;0.93;;
9330;SDS011;4704;50.470;12.072;2023-12-20T11:35:36;1.25;;;1.08;;
9330;SDS011;4704;50.470;12.072;2023-12-20T11:38:04;0.80;;;0.80;;
9330;SDS011;4704;50.470;12.072;2023-12-20T11:40:34;1.10;;;1.00;;
9330;SDS011;4704;50.470;12.072;2023-12-20T11:43:02;1.13;;;0.75;;
9330;SDS011;4704;50.470;12.072;2023-12-20T11:45:29;0.98;;;0.98;;
9330;SDS011;4704;50.470;12.072;2023-12-20T11:47:58;1.10;;;1.00;;
9330;SDS011;4704;50.470;12.072;2023-12-20T11:50:26;1.10;;;1.00;;
9330;SDS011;4704;50.470;12.072;2023-12-20T11:52:53;1.38;;;0.80;;
9330;SDS011;4704;50.470;12.072;2023-12-20T11:55:21;2.13;;;1.08;;
9330;SDS011;4704;50.470;12.072;2023-12-20T11:57:49;1.10;;;0.95;;
9330;SDS011;4704;50.470;12.072;2023-12-20T12:00:17;1.00;;;0.90;;
9330;SDS011;4704;50.470;12.072;2023-12-20T12:02:55;0.80;;;0.80;;
9330;SDS011;4704;50.470;12.072;2023-12-20T12:05:24;2.03;;;0.98;;
9330;SDS011;4704;50.470;12.072;2023-12-20T12:07:51;1.05;;;0.90;;
9330;SDS011;4704;50.470;12.072;2023-12-20T12:10:19;1.35;;;0.95;;
9330;SDS011;4704;50.470;12.072;2023-12-20T12:12:47;1.70;;;1.00;;
9330;SDS011;4704;50.470;12.072;2023-12-20T12:15:15;1.10;;;1.00;;
9330;SDS011;4704;50.470;12.072;2023-12-20T12:17:42;1.30;;;1.00;;
9330;SDS011;4704;50.470;12.072;2023-12-20T12:20:10;1.10;;;0.90;;
9330;SDS011;4704;50.470;12.072;2023-12-20T12:22:39;1.00;;;0.90;;
9330;SDS011;4704;50.470;12.072;2023-12-20T12:25:10;1.58;;;1.00;;
9330;SDS011;4704;50.470;12.072;2023-12-20T12:27:39;2.50;;;0.93;;
9330;SDS011;4704;50.470;12.072;2023-12-20T12:30:07;1.40;;;1.30;;
9330;SDS011;4704;50.470;12.072;2023-12-20T12:32:37;0.90;;;0.90;;
9330;SDS011;4704;50.470;12.072;2023-12-20T12:35:05;0.90;;;0.85;;
9330;SDS011;4704;50.470;12.072;2023-12-20T12:37:34;1.38;;;0.80;;
9330;SDS011;4704;50.470;12.072;2023-12-20T12:40:05;1.20;;;0.90;;
9330;SDS011;4704;50.470;12.072;2023-12-20T12:42:32;1.13;;;0.70;;
9330;SDS011;4704;50.470;12.072;2023-12-20T12:45:00;1.15;;;1.00;;
9330;SDS011;4704;50.470;12.072;2023-12-20T12:47:27;1.13;;;0.90;;
9330;SDS011;4704;50.470;12.072;2023-12-20T12:49:54;2.33;;;1.00;;
9330;SDS011;4704;50.470;12.072;2023-12-20T12:52:22;1.02;;;1.00;;
9330;SDS011;4704;50.470;12.072;2023-12-20T12:54:50;0.98;;;0.85;;
9330;SDS011;4704;50.470;12.072;2023-12-20T12:57:18;2.53;;;1.02;;
9330;SDS011;4704;50.470;12.072;2023-12-20T12:59:46;0.80;;;0.80;;
9330;SDS011;4704;50.470;12.072;2023-12-20T13:02:13;1.77;;;0.85;;
9330;SDS011;4704;50.470;12.072;2023-12-20T13:04:41;1.00;;;0.90;;
9330;SDS011;4704;50.470;12.072;2023-12-20T13:07:09;1.08;;;1.00;;
9330;SDS011;4704;50.470;12.072;2023-12-20T13:09:36;1.05;;;0.90;;
9330;SDS011;4704;50.470;12.072;2023-12-20T13:12:04;0.80;;;0.80;;
9330;SDS011;4704;50.470;12.072;2023-12-20T13:14:34;1.05;;;0.73;;
9330;SDS011;4704;50.470;12.072;2023-12-20T13:17:02;1.10;;;0.88;;
9330;SDS011;4704;50.470;12.072;2023-12-20T13:19:30;0.80;;;0.80;;
9330;SDS011;4704;50.470;12.072;2023-12-20T13:21:57;1.02;;;0.80;;
9330;SDS011;4704;50.470;12.072;2023-12-20T13:24:24;1.10;;;1.00;;
9330;SDS011;4704;50.470;12.072;2023-12-20T13:26:52;1.50;;;0.85;;
9330;SDS011;4704;50.470;12.072;2023-12-20T13:29:19;0.90;;;0.90;;
9330;SDS011;4704;50.470;12.072;2023-12-20T13:31:48;1.88;;;1.00;;
9330;SDS011;4704;50.470;12.072;2023-12-20T13:34:16;0.88;;;0.88;;
9330;SDS011;4704;50.470;12.072;2023-12-20T13:36:44;0.70;;;0.70;;
9330;SDS011;4704;50.470;12.072;2023-12-20T13:39:12;1.05;;;0.80;;
9330;SDS011;4704;50.470;12.072;2023-12-20T13:41:40;1.20;;;0.80;;
9330;SDS011;4704;50.470;12.072;2023-12-20T13:44:07;0.70;;;0.70;;
9330;SDS011;4704;50.470;12.072;2023-12-20T13:46:35;0.90;;;0.90;;
9330;SDS011;4704;50.470;12.072;2023-12-20T13:49:04;1.30;;;0.77;;
9330;SDS011;4704;50.470;12.072;2023-12-20T13:51:31;0.90;;;0.90;;
9330;SDS011;4704;50.470;12.072;2023-12-20T13:53:59;1.45;;;0.80;;
9330;SDS011;4704;50.470;12.072;2023-12-20T13:56:26;1.15;;;0.80;;
9330;SDS011;4704;50.470;12.072;2023-12-20T13:58:53;0.80;;;0.77;;
9330;SDS011;4704;50.470;12.072;2023-12-20T14:01:21;1.05;;;0.80;;
9330;SDS011;4704;50.470;12.072;2023-12-20T14:03:48;0.98;;;0.85;;
9330;SDS011;4704;50.470;12.072;2023-12-20T14:06:18;0.90;;;0.70;;
9330;SDS011;4704;50.470;12.072;2023-12-20T14:08:46;0.98;;;0.88;;
9330;SDS011;4704;50.470;12.072;2023-12-20T14:11:14;1.00;;;0.88;;
9330;SDS011;4704;50.470;12.072;2023-12-20T14:13:42;1.33;;;0.80;;
9330;SDS011;4704;50.470;12.072;2023-12-20T14:16:10;0.77;;;0.77;;
9330;SDS011;4704;50.470;12.072;2023-12-20T14:18:37;1.38;;;0.88;;
9330;SDS011;4704;50.470;12.072;2023-12-20T14:21:05;1.00;;;0.90;;
9330;SDS011;4704;50.470;12.072;2023-12-20T14:23:34;0.90;;;0.75;;
9330;SDS011;4704;50.470;12.072;2023-12-20T14:26:01;1.35;;;0.90;;
9330;SDS011;4704;50.470;12.072;2023-12-20T14:28:29;1.27;;;0.80;;
9330;SDS011;4704;50.470;12.072;2023-12-20T14:30:56;1.13;;;0.80;;
9330;SDS011;4704;50.470;12.072;2023-12-20T14:33:23;1.02;;;0.70;;
9330;SDS011;4704;50.470;12.072;2023-12-20T14:35:51;0.80;;;0.80;;
9330;SDS011;4704;50.470;12.072;2023-12-20T14:38:18;1.17;;;0.80;;
9330;SDS011;4704;50.470;12.072;2023-12-20T14:40:48;1.13;;;0.73;;
9330;SDS011;4704;50.470;12.072;2023-12-20T14:43:15;0.73;;;0.63;;
9330;SDS011;4704;50.470;12.072;2023-12-20T14:45:43;1.20;;;0.85;;
9330;SDS011;4704;50.470;12.072;2023-12-20T14:48:10;1.50;;;0.75;;
9330;SDS011;4704;50.470;12.072;2023-12-20T14:50:38;0.95;;;0.80;;
9330;SDS011;4704;50.470;12.072;2023-12-20T14:53:05;0.85;;;0.80;;
9330;SDS011;4704;50.470;12.072;2023-12-20T14:55:33;1.40;;;0.80;;
9330;SDS011;4704;50.470;12.072;2023-12-20T14:58:02;0.70;;;0.70;;
9330;SDS011;4704;50.470;12.072;2023-12-20T15:00:30;0.80;;;0.70;;
9330;SDS011;4704;50.470;12.072;2023-12-20T15:03:00;1.35;;;0.63;;
9330;SDS011;4704;50.470;12.072;2023-12-20T15:05:29;1.08;;;0.80;;
9330;SDS011;4704;50.470;12.072;2023-12-20T15:07:56;0.80;;;0.80;;